createdAt,value
2022-10-12T00:01:02.507Z,16.81
2022-10-12T00:03:30.987Z,16.83
2022-10-12T00:06:04.228Z,16.90
2022-10-12T00:08:34.773Z,16.78
2022-10-12T00:11:03.864Z,16.51
2022-10-12T00:13:32.482Z,16.53
2022-10-12T00:16:04.433Z,16.81
2022-10-12T00:18:33.027Z,16.78
2022-10-12T00:21:05.444Z,16.72
2022-10-12T00:23:36.681Z,16.76
2022-10-12T00:26:07.304Z,16.90
2022-10-12T00:28:36.878Z,16.79
2022-10-12T00:31:08.997Z,16.58
2022-10-12T00:33:38.701Z,16.37
2022-10-12T00:36:16.103Z,16.04
2022-10-12T00:38:46.328Z,16.33
2022-10-12T00:41:15.932Z,16.54
2022-10-12T00:43:45.739Z,16.69
2022-10-12T00:46:19.091Z,16.81
2022-10-12T00:48:49.388Z,15.74
2022-10-12T00:51:20.885Z,16.94
2022-10-12T00:53:54.567Z,16.77
2022-10-12T00:56:26.945Z,16.93
2022-10-12T00:58:56.236Z,16.79
2022-10-12T01:01:24.882Z,16.81
2022-10-12T01:03:53.299Z,16.46
2022-10-12T01:06:21.847Z,16.05
2022-10-12T01:08:52.113Z,16.05
2022-10-12T01:11:20.432Z,16.70
2022-10-12T01:13:48.710Z,16.62
2022-10-12T01:16:21.718Z,16.64
2022-10-12T01:18:57.364Z,16.76
2022-10-12T01:21:27.076Z,16.49
2022-10-12T01:24:26.089Z,16.70
2022-10-12T01:27:25.288Z,16.91
2022-10-12T01:30:17.185Z,16.82
2022-10-12T01:33:11.421Z,16.65
2022-10-12T01:35:47.289Z,16.37
2022-10-12T01:38:28.989Z,15.71
2022-10-12T01:41:04.162Z,15.72
2022-10-12T01:43:36.696Z,15.80
2022-10-12T01:46:38.094Z,15.85
2022-10-12T01:49:08.574Z,15.75
2022-10-12T01:51:48.268Z,16.52
2022-10-12T01:54:28.118Z,16.51
2022-10-12T01:57:05.321Z,16.66
2022-10-12T01:59:44.340Z,16.69
2022-10-12T02:02:20.154Z,16.62
2022-10-12T02:04:53.747Z,16.76
2022-10-12T02:07:27.272Z,16.73
2022-10-12T02:09:59.995Z,16.55
2022-10-12T02:12:30.593Z,16.74
2022-10-12T02:15:02.417Z,16.64
2022-10-12T02:17:31.816Z,16.78
2022-10-12T02:20:03.100Z,16.98
2022-10-12T02:22:39.497Z,17.02
2022-10-12T02:25:11.222Z,16.75
2022-10-12T02:27:43.608Z,16.73
2022-10-12T02:30:13.683Z,16.54
2022-10-12T02:32:50.263Z,16.47
2022-10-12T02:35:26.190Z,16.43
2022-10-12T02:38:01.733Z,16.47
2022-10-12T02:40:36.400Z,16.03
2022-10-12T02:43:11.452Z,16.06
2022-10-12T02:45:43.997Z,16.33
2022-10-12T02:48:17.140Z,16.60
2022-10-12T02:50:48.560Z,16.68
2022-10-12T02:53:17.894Z,16.66
2022-10-12T02:55:51.053Z,16.73
2022-10-12T02:58:19.755Z,16.71
2022-10-12T03:00:48.470Z,16.79
2022-10-12T03:03:16.837Z,16.91
2022-10-12T03:05:47.193Z,16.83
2022-10-12T03:08:15.571Z,16.19
2022-10-12T03:10:43.845Z,14.68
2022-10-12T03:13:12.123Z,15.96
2022-10-12T03:15:40.412Z,16.30
2022-10-12T03:18:08.714Z,16.22
2022-10-12T03:20:37.001Z,16.24
2022-10-12T03:23:06.697Z,15.92
2022-10-12T03:25:35.009Z,16.12
2022-10-12T03:28:03.261Z,16.28
2022-10-12T03:30:31.535Z,16.17
2022-10-12T03:32:59.897Z,16.45
2022-10-12T03:35:28.193Z,16.61
2022-10-12T03:37:56.512Z,16.66
2022-10-12T03:40:26.281Z,16.49
2022-10-12T03:42:54.552Z,15.90
2022-10-12T03:45:22.869Z,15.65
2022-10-12T03:47:51.340Z,15.47
2022-10-12T03:50:19.728Z,15.57
2022-10-12T03:52:48.017Z,15.74
2022-10-12T03:55:16.461Z,15.67
2022-10-12T03:57:46.682Z,15.92
2022-10-12T04:00:15.880Z,16.12
2022-10-12T04:02:44.217Z,16.06
2022-10-12T04:05:12.509Z,15.37
2022-10-12T04:07:40.960Z,16.32
2022-10-12T04:10:10.069Z,16.31
2022-10-12T04:12:38.373Z,16.16
2022-10-12T04:15:09.386Z,15.99
2022-10-12T04:17:38.004Z,16.07
2022-10-12T04:20:08.180Z,16.22
2022-10-12T04:22:36.494Z,16.13
2022-10-12T04:25:04.944Z,16.10
2022-10-12T04:27:33.177Z,15.70
2022-10-12T04:30:01.549Z,15.77
2022-10-12T04:32:32.085Z,15.96
2022-10-12T04:35:00.376Z,16.24
2022-10-12T04:37:28.923Z,16.27
2022-10-12T04:39:57.313Z,16.03
2022-10-12T04:42:25.615Z,16.04
2022-10-12T04:44:53.911Z,15.60
2022-10-12T04:47:22.388Z,15.97
2022-10-12T04:49:52.479Z,15.76
2022-10-12T04:52:20.779Z,15.83
2022-10-12T04:54:49.043Z,15.82
2022-10-12T04:57:17.385Z,15.62
2022-10-12T04:59:45.598Z,15.93
2022-10-12T05:02:13.929Z,16.00
2022-10-12T05:04:42.219Z,16.02
2022-10-12T05:07:11.837Z,16.23
2022-10-12T05:09:40.058Z,16.10
2022-10-12T05:12:08.761Z,16.35
2022-10-12T05:14:36.990Z,16.50
2022-10-12T05:17:05.306Z,16.60
2022-10-12T05:19:33.641Z,16.52
2022-10-12T05:22:01.948Z,16.30
2022-10-12T05:24:31.594Z,16.31
2022-10-12T05:26:59.882Z,16.43
2022-10-12T05:29:28.097Z,16.35
2022-10-12T05:31:56.422Z,16.43
2022-10-12T05:34:24.768Z,16.31
2022-10-12T05:36:53.061Z,16.19
2022-10-12T05:39:21.357Z,16.32
2022-10-12T05:41:51.522Z,16.62
2022-10-12T05:44:19.854Z,16.48
2022-10-12T05:46:48.103Z,16.29
2022-10-12T05:49:16.396Z,16.33
2022-10-12T05:51:44.744Z,16.45
2022-10-12T05:54:13.131Z,16.43
2022-10-12T05:56:41.524Z,16.54
2022-10-12T05:59:11.902Z,16.68
2022-10-12T06:01:40.601Z,16.85
2022-10-12T06:04:08.988Z,16.82
2022-10-12T06:06:37.202Z,16.97
2022-10-12T06:09:05.629Z,16.27
2022-10-12T06:11:36.404Z,16.90
2022-10-12T06:14:05.003Z,16.62
2022-10-12T06:16:35.053Z,16.37
2022-10-12T06:19:03.616Z,16.22
2022-10-12T06:21:34.360Z,16.65
2022-10-12T06:24:03.140Z,16.75
2022-10-12T06:26:31.807Z,16.64
2022-10-12T06:29:00.967Z,16.72
2022-10-12T06:31:29.508Z,16.38
2022-10-12T06:33:59.210Z,16.95
2022-10-12T06:36:27.491Z,17.47
2022-10-12T06:38:55.838Z,17.32
2022-10-12T06:41:24.152Z,16.94
2022-10-12T06:43:52.446Z,16.89
2022-10-12T06:46:20.748Z,16.82
2022-10-12T06:48:48.926Z,16.66
2022-10-12T06:51:18.920Z,16.40
2022-10-12T06:53:47.240Z,16.84
2022-10-12T06:56:15.809Z,16.65
2022-10-12T06:58:44.027Z,16.88
2022-10-12T07:01:12.384Z,17.23
2022-10-12T07:03:40.680Z,17.34
2022-10-12T07:06:10.411Z,17.29
2022-10-12T07:08:41.294Z,17.67
2022-10-12T07:11:11.429Z,17.55
2022-10-12T07:13:40.008Z,16.94
2022-10-12T07:16:09.048Z,17.24
2022-10-12T07:18:37.359Z,17.65
2022-10-12T07:21:05.751Z,17.57
2022-10-12T07:23:35.219Z,17.42
2022-10-12T07:26:05.158Z,17.55
2022-10-12T07:28:34.939Z,17.71
2022-10-12T07:31:04.062Z,17.54
2022-10-12T07:33:34.226Z,17.14
2022-10-12T07:36:13.876Z,17.09
2022-10-12T07:38:45.397Z,17.14
2022-10-12T07:41:15.993Z,17.39
2022-10-12T07:43:44.295Z,17.37
2022-10-12T07:46:13.226Z,17.53
2022-10-12T07:48:45.867Z,17.78
2022-10-12T07:51:17.401Z,17.64
2022-10-12T07:53:46.053Z,17.62
2022-10-12T07:56:18.595Z,18.10
2022-10-12T07:58:50.690Z,18.14
2022-10-12T08:01:20.296Z,18.02
2022-10-12T08:03:48.749Z,18.52
2022-10-12T08:06:19.195Z,18.10
2022-10-12T08:08:48.228Z,18.18
2022-10-12T08:11:19.168Z,17.88
2022-10-12T08:13:47.925Z,18.39
2022-10-12T08:16:18.884Z,18.57
2022-10-12T08:18:47.583Z,19.37
2022-10-12T08:21:17.472Z,19.52
2022-10-12T08:23:45.812Z,19.59
2022-10-12T08:26:14.950Z,19.73
2022-10-12T08:28:44.915Z,19.68
2022-10-12T08:31:15.091Z,19.58
2022-10-12T08:33:43.391Z,19.06
2022-10-12T08:36:13.744Z,19.23
2022-10-12T08:38:43.631Z,19.24
2022-10-12T08:41:39.594Z,19.34
2022-10-12T08:44:33.551Z,19.85
2022-10-12T08:47:10.818Z,20.17
2022-10-12T08:49:41.225Z,19.85
2022-10-12T08:52:22.249Z,19.75
2022-10-12T08:54:50.513Z,20.14
2022-10-12T08:57:20.156Z,20.46
2022-10-12T08:59:50.159Z,20.42
2022-10-12T09:02:36.912Z,20.19
2022-10-12T09:05:09.948Z,20.64
2022-10-12T09:07:41.928Z,19.78
2022-10-12T09:10:27.133Z,20.19
2022-10-12T09:13:03.608Z,19.94
2022-10-12T09:15:36.468Z,19.90
2022-10-12T09:18:16.344Z,19.74
2022-10-12T09:20:48.943Z,20.31
2022-10-12T09:23:26.849Z,20.52
2022-10-12T09:25:59.477Z,20.67
2022-10-12T09:28:35.957Z,20.58
2022-10-12T09:31:18.325Z,21.13
2022-10-12T09:33:53.200Z,21.05
2022-10-12T09:36:23.435Z,21.31
2022-10-12T09:38:52.491Z,21.40
2022-10-12T09:41:23.312Z,20.87
2022-10-12T09:43:53.857Z,21.17
2022-10-12T09:46:30.611Z,21.12
2022-10-12T09:49:00.345Z,21.85
2022-10-12T09:51:30.668Z,21.68
2022-10-12T09:54:03.637Z,21.15
2022-10-12T09:56:41.782Z,21.53
2022-10-12T09:59:27.438Z,21.52
2022-10-12T10:02:05.951Z,21.17
2022-10-12T10:04:34.333Z,21.10
2022-10-12T10:07:22.719Z,21.19
2022-10-12T10:10:10.301Z,20.41
2022-10-12T10:12:42.325Z,20.42
2022-10-12T10:15:21.485Z,20.71
2022-10-12T10:17:54.128Z,21.08
2022-10-12T10:20:28.572Z,21.64
2022-10-12T10:22:57.717Z,22.39
2022-10-12T10:25:26.471Z,22.55
2022-10-12T10:28:21.780Z,21.82
2022-10-12T10:30:59.036Z,22.21
2022-10-12T10:33:28.668Z,21.88
2022-10-12T10:36:01.607Z,22.30
2022-10-12T10:38:32.107Z,22.94
2022-10-12T10:41:02.770Z,22.15
2022-10-12T10:43:32.765Z,22.25
2022-10-12T10:46:03.752Z,22.85
2022-10-12T10:48:51.111Z,22.88
2022-10-12T10:51:19.577Z,22.50
2022-10-12T10:53:49.962Z,22.52
2022-10-12T10:56:22.275Z,21.73
2022-10-12T10:58:53.298Z,21.71
2022-10-12T11:01:27.557Z,21.53
2022-10-12T11:04:02.804Z,21.14
2022-10-12T11:06:39.875Z,21.67
2022-10-12T11:09:13.231Z,21.98
2022-10-12T11:11:44.854Z,21.95
2022-10-12T11:14:17.589Z,21.52
2022-10-12T11:16:50.902Z,21.23
2022-10-12T11:19:27.713Z,21.37
2022-10-12T11:21:59.170Z,21.50
2022-10-12T11:24:33.621Z,21.87
2022-10-12T11:27:07.017Z,21.93
2022-10-12T11:29:37.734Z,21.90
2022-10-12T11:32:12.865Z,22.07
2022-10-12T11:34:50.031Z,21.92
2022-10-12T11:37:21.922Z,22.07
2022-10-12T11:39:53.853Z,21.55
2022-10-12T11:42:32.432Z,21.72
2022-10-12T11:45:02.497Z,21.79
2022-10-12T11:47:37.595Z,22.38
2022-10-12T11:50:16.601Z,22.41
2022-10-12T11:52:47.536Z,22.30
2022-10-12T11:55:52.848Z,22.51
2022-10-12T11:58:42.185Z,21.84
2022-10-12T12:01:29.780Z,21.89
2022-10-12T12:04:41.083Z,21.90
2022-10-12T12:07:43.250Z,21.82
2022-10-12T12:11:00.199Z,21.85
2022-10-12T12:13:28.689Z,22.76
2022-10-12T12:16:26.591Z,22.39
2022-10-12T12:19:14.852Z,22.54
2022-10-12T12:22:18.464Z,22.74
2022-10-12T12:24:57.894Z,22.73
2022-10-12T12:27:32.854Z,22.34
2022-10-12T12:30:03.107Z,21.75
2022-10-12T12:32:44.801Z,22.16
2022-10-12T12:35:22.874Z,21.76
2022-10-12T12:38:01.262Z,22.31
2022-10-12T12:40:31.108Z,22.38
2022-10-12T12:43:21.027Z,22.26
2022-10-12T12:45:57.626Z,21.91
2022-10-12T12:49:11.692Z,21.93
2022-10-12T12:51:44.053Z,22.12
2022-10-12T12:54:23.188Z,22.25
2022-10-12T12:57:08.032Z,21.70
2022-10-12T13:00:04.748Z,21.55
2022-10-12T13:03:13.521Z,21.77
2022-10-12T13:06:23.152Z,21.57
2022-10-12T13:09:24.203Z,21.52
2022-10-12T13:12:34.189Z,21.32
2022-10-12T13:15:25.812Z,21.59
2022-10-12T13:18:52.698Z,21.30
2022-10-12T13:21:24.255Z,20.50
2022-10-12T13:23:58.237Z,21.20
2022-10-12T13:26:32.229Z,21.50
2022-10-12T13:29:03.105Z,21.55
2022-10-12T13:31:39.296Z,21.51
2022-10-12T13:34:14.328Z,20.96
2022-10-12T13:36:53.347Z,20.96
2022-10-12T13:39:23.161Z,20.92
2022-10-12T13:41:54.980Z,21.10
2022-10-12T13:44:26.652Z,21.11
2022-10-12T13:46:59.262Z,21.26
2022-10-12T13:49:29.799Z,21.37
2022-10-12T13:52:00.538Z,21.19
2022-10-12T13:54:36.878Z,21.25
2022-10-12T13:57:10.119Z,21.20
2022-10-12T13:59:40.474Z,21.29
2022-10-12T14:02:20.289Z,20.98
2022-10-12T14:04:50.574Z,20.70
2022-10-12T14:07:23.200Z,20.82
2022-10-12T14:09:55.828Z,20.88
2022-10-12T14:12:25.844Z,21.07
2022-10-12T14:14:55.088Z,21.12
2022-10-12T14:17:25.114Z,20.83
2022-10-12T14:19:55.381Z,20.77
2022-10-12T14:22:27.634Z,20.12
2022-10-12T14:25:11.601Z,20.14
2022-10-12T14:27:42.053Z,20.41
2022-10-12T14:30:19.656Z,20.58
2022-10-12T14:32:50.490Z,20.53
2022-10-12T14:35:27.726Z,20.67
2022-10-12T14:37:57.652Z,20.61
2022-10-12T14:40:32.602Z,20.61
2022-10-12T14:43:04.887Z,20.04
2022-10-12T14:45:34.424Z,20.00
2022-10-12T14:48:05.185Z,20.12
2022-10-12T14:50:34.113Z,20.46
2022-10-12T14:53:05.099Z,20.27
2022-10-12T14:55:35.356Z,20.66
2022-10-12T14:58:03.779Z,20.65
2022-10-12T15:00:34.242Z,20.62
2022-10-12T15:03:05.386Z,20.53
2022-10-12T15:05:34.599Z,20.59
2022-10-12T15:08:07.534Z,20.61
2022-10-12T15:10:36.903Z,20.31
2022-10-12T15:13:05.147Z,20.01
2022-10-12T15:15:37.692Z,19.94
2022-10-12T15:18:07.900Z,20.26
2022-10-12T15:20:37.182Z,20.21
2022-10-12T15:23:05.985Z,20.37
2022-10-12T15:25:46.323Z,20.21
2022-10-12T15:28:14.639Z,20.08
2022-10-12T15:31:11.838Z,20.14
2022-10-12T15:33:33.232Z,20.02
2022-10-12T15:36:01.446Z,20.15
2022-10-12T15:38:29.648Z,20.13
2022-10-12T15:40:58.484Z,19.81
2022-10-12T15:43:26.802Z,19.38
2022-10-12T15:45:56.580Z,19.33
2022-10-12T15:48:24.882Z,19.39
2022-10-12T15:50:54.518Z,19.30
2022-10-12T15:53:24.899Z,19.45
2022-10-12T15:55:53.443Z,19.28
2022-10-12T15:58:22.069Z,19.02
2022-10-12T16:00:50.919Z,18.57
2022-10-12T16:03:25.715Z,18.60
2022-10-12T16:05:56.049Z,18.53
2022-10-12T16:08:25.002Z,18.72
2022-10-12T16:10:53.376Z,19.01
2022-10-12T16:13:21.663Z,19.07
2022-10-12T16:15:49.918Z,18.89
2022-10-12T16:18:18.149Z,18.99
2022-10-12T16:20:51.116Z,19.11
2022-10-12T16:23:27.068Z,19.22
2022-10-12T16:25:55.962Z,19.32
2022-10-12T16:28:25.010Z,19.28
2022-10-12T16:30:53.800Z,18.89
2022-10-12T16:33:22.617Z,18.93
2022-10-12T16:35:50.909Z,18.96
2022-10-12T16:38:20.574Z,18.84
2022-10-12T16:40:51.226Z,18.63
2022-10-12T16:43:19.691Z,19.00
2022-10-12T16:45:56.492Z,19.13
2022-10-12T16:48:31.025Z,18.94
2022-10-12T16:50:59.501Z,17.96
2022-10-12T16:53:28.054Z,18.37
2022-10-12T16:55:57.955Z,18.02
2022-10-12T16:58:27.367Z,18.03
2022-10-12T17:00:55.852Z,18.39
2022-10-12T17:03:25.056Z,18.58
2022-10-12T17:06:00.368Z,18.77
2022-10-12T17:08:34.201Z,18.92
2022-10-12T17:11:08.989Z,18.84
2022-10-12T17:13:38.536Z,18.17
2022-10-12T17:16:33.330Z,18.15
2022-10-12T17:19:01.501Z,17.86
2022-10-12T17:21:30.015Z,17.36
2022-10-12T17:23:58.792Z,17.36
2022-10-12T17:26:28.822Z,17.79
2022-10-12T17:28:57.213Z,18.21
2022-10-12T17:31:26.154Z,18.12
2022-10-12T17:33:54.469Z,18.34
2022-10-12T17:36:27.902Z,18.16
2022-10-12T17:38:58.504Z,18.33
2022-10-12T17:41:34.518Z,18.57
2022-10-12T17:44:03.060Z,18.67
2022-10-12T17:46:31.757Z,18.65
2022-10-12T17:49:03.916Z,18.26
2022-10-12T17:51:35.053Z,17.91
2022-10-12T17:54:03.334Z,17.88
2022-10-12T17:56:31.709Z,18.25
2022-10-12T17:59:04.790Z,17.86
2022-10-12T18:01:34.444Z,17.51
2022-10-12T18:04:03.533Z,17.62
2022-10-12T18:06:33.301Z,17.74
2022-10-12T18:09:03.026Z,18.10
2022-10-12T18:11:31.368Z,18.23
2022-10-12T18:14:01.230Z,18.22
2022-10-12T18:16:31.884Z,18.09
2022-10-12T18:19:02.010Z,18.25
2022-10-12T18:21:31.684Z,18.40
2022-10-12T18:24:02.893Z,18.56
2022-10-12T18:26:33.135Z,18.25
2022-10-12T18:29:05.270Z,18.67
2022-10-12T18:31:33.712Z,18.55
2022-10-12T18:34:02.082Z,18.68
2022-10-12T18:36:30.742Z,18.60
2022-10-12T18:39:01.925Z,18.56
2022-10-12T18:41:31.359Z,18.53
2022-10-12T18:44:02.831Z,18.47
2022-10-12T18:46:33.776Z,18.22
2022-10-12T18:49:05.116Z,18.32
2022-10-12T18:51:36.321Z,18.36
2022-10-12T18:54:05.678Z,18.08
2022-10-12T18:56:36.411Z,17.00
2022-10-12T18:59:07.693Z,17.74
2022-10-12T19:01:38.119Z,18.01
2022-10-12T19:04:07.057Z,18.15
2022-10-12T19:06:38.316Z,18.22
2022-10-12T19:09:07.196Z,18.08
2022-10-12T19:11:37.169Z,17.53
2022-10-12T19:14:08.708Z,17.59
2022-10-12T19:16:37.805Z,17.93
2022-10-12T19:19:09.152Z,18.12
2022-10-12T19:21:37.481Z,17.99
2022-10-12T19:24:06.956Z,17.99
2022-10-12T19:26:35.934Z,18.03
2022-10-12T19:29:07.045Z,18.07
2022-10-12T19:31:39.001Z,18.08
2022-10-12T19:34:11.933Z,17.83
2022-10-12T19:36:41.530Z,18.09
2022-10-12T19:39:13.199Z,18.03
2022-10-12T19:41:41.644Z,18.02
2022-10-12T19:44:12.685Z,17.98
2022-10-12T19:46:42.652Z,17.98
2022-10-12T19:49:13.654Z,18.00
2022-10-12T19:51:42.230Z,17.99
2022-10-12T19:54:12.524Z,17.88
2022-10-12T19:56:41.069Z,17.68
2022-10-12T19:59:10.863Z,17.48
2022-10-12T20:01:40.136Z,17.66
2022-10-12T20:04:12.103Z,17.76
2022-10-12T20:06:41.121Z,17.80
2022-10-12T20:09:10.272Z,17.53
2022-10-12T20:11:38.661Z,17.66
2022-10-12T20:14:07.461Z,17.29
2022-10-12T20:16:37.768Z,17.55
2022-10-12T20:19:06.990Z,17.57
2022-10-12T20:21:36.611Z,17.32
2022-10-12T20:24:05.144Z,17.58
2022-10-12T20:26:33.436Z,17.56
2022-10-12T20:29:02.045Z,17.34
2022-10-12T20:31:30.363Z,17.25
2022-10-12T20:34:00.081Z,17.34
2022-10-12T20:36:32.280Z,17.37
2022-10-12T20:39:01.227Z,16.96
2022-10-12T20:41:29.569Z,17.15
2022-10-12T20:43:59.080Z,17.19
2022-10-12T20:46:28.000Z,17.15
2022-10-12T20:48:59.816Z,17.27
2022-10-12T20:51:30.017Z,17.36
2022-10-12T20:54:00.975Z,17.33
2022-10-12T20:56:29.856Z,17.30
2022-10-12T20:58:58.149Z,16.90
2022-10-12T21:01:28.374Z,16.94
2022-10-12T21:03:56.764Z,17.17
2022-10-12T21:06:26.512Z,16.05
2022-10-12T21:08:56.863Z,16.93
2022-10-12T21:11:25.355Z,17.03
2022-10-12T21:13:53.933Z,16.71
2022-10-12T21:16:23.330Z,16.46
2022-10-12T21:18:54.600Z,16.71
2022-10-12T21:21:22.898Z,16.61
2022-10-12T21:23:56.753Z,16.79
2022-10-12T21:26:27.093Z,16.65
2022-10-12T21:28:55.493Z,16.78
2022-10-12T21:31:28.155Z,16.63
2022-10-12T21:34:00.142Z,16.28
2022-10-12T21:36:29.461Z,16.26
2022-10-12T21:39:00.055Z,16.01
2022-10-12T21:41:31.633Z,15.89
2022-10-12T21:43:59.973Z,15.87
2022-10-12T21:46:29.639Z,15.73
2022-10-12T21:48:58.763Z,16.20
2022-10-12T21:51:28.255Z,16.45
2022-10-12T21:53:56.565Z,16.61
2022-10-12T21:56:28.209Z,16.68
2022-10-12T21:58:58.925Z,16.77
2022-10-12T22:01:29.055Z,16.80
2022-10-12T22:03:59.137Z,16.79
2022-10-12T22:06:29.426Z,16.79
2022-10-12T22:08:59.135Z,16.70
2022-10-12T22:11:30.798Z,16.66
2022-10-12T22:14:00.921Z,16.27
2022-10-12T22:16:30.381Z,16.43
2022-10-12T22:18:59.796Z,16.54
2022-10-12T22:21:28.774Z,16.24
2022-10-12T22:23:57.209Z,15.92
2022-10-12T22:26:25.589Z,16.23
2022-10-12T22:28:55.393Z,15.75
2022-10-12T22:31:25.639Z,16.44
2022-10-12T22:33:54.619Z,16.50
2022-10-12T22:36:22.926Z,16.59
2022-10-12T22:38:51.216Z,16.18
2022-10-12T22:41:22.030Z,16.72
2022-10-12T22:43:51.196Z,16.74
2022-10-12T22:46:22.226Z,16.43
2022-10-12T22:48:51.031Z,16.41
2022-10-12T22:51:22.856Z,16.17
2022-10-12T22:53:51.008Z,16.60
2022-10-12T22:56:20.319Z,16.65
2022-10-12T22:58:49.178Z,15.56
2022-10-12T23:01:18.904Z,16.72
2022-10-12T23:03:48.662Z,16.65
2022-10-12T23:06:18.845Z,16.63
2022-10-12T23:08:47.793Z,16.70
2022-10-12T23:11:18.184Z,16.66
2022-10-12T23:13:47.114Z,15.35
2022-10-12T23:16:18.105Z,16.49
2022-10-12T23:18:46.910Z,16.32
2022-10-12T23:21:18.186Z,16.11
2022-10-12T23:23:47.171Z,15.22
2022-10-12T23:26:17.673Z,15.87
2022-10-12T23:28:47.265Z,16.01
2022-10-12T23:31:17.189Z,15.87
2022-10-12T23:33:46.169Z,15.61
2022-10-12T23:36:18.327Z,15.26
2022-10-12T23:38:46.888Z,15.19
2022-10-12T23:41:15.143Z,15.65
2022-10-12T23:43:43.553Z,15.14
2022-10-12T23:46:13.420Z,15.06
2022-10-12T23:48:41.826Z,15.48
2022-10-12T23:51:10.604Z,15.73
2022-10-12T23:53:42.028Z,15.64
2022-10-12T23:56:10.302Z,15.70
2022-10-12T23:58:38.851Z,15.79
